Buoy 24696

sailwx.info

Track history (hours):
 
Tides and Currents Weather Stations Pressure Air Temp Water Temp Dewpoint Dewpoint Depression Visibility Wind Speed Wind Dir Waves Ship Positions

24696

Last reported at 2017-Oct-16 02:37 UTC. Time now 2017-Oct-18 11:30 UTC.
Position S 27°24' E 153°09'.

Type: Pleasure craft. MMSI: 503052290.

Date/timePositionNaut miles runAvg speedWind from/ knotsBaromVisibWave heightAir tempDewpointWater temp
2017-Oct-16 02:37S 27°24' E 153°09'430.8
2017-Oct-16 02:30S 27°20' E 153°10'817.0
2017-Oct-16 02:01S 27°12' E 153°09'2 4.0
2017-Oct-16 01:31S 27°12' E 153°06'0 0.0
2017-Oct-15 23:02S 27°12' E 153°06'0 0.0
2017-Oct-15 23:00S 27°12' E 153°06'0 0.6
2017-Oct-15 22:31S 27°11' E 153°06'3 6.6
2017-Oct-15 22:00S 27°08' E 153°07'4 8.5
2017-Oct-15 21:31S 27°04' E 153°09'0 0.0
2017-Oct-15 06:58S 27°04' E 153°09'1 1.7
2017-Oct-15 06:31S 27°04' E 153°09'1 0.5
2017-Oct-15 04:52S 27°04' E 153°09'1 1.9
2017-Oct-15 04:30S 27°04' E 153°09'0 0.0
2017-Oct-15 04:00S 27°04' E 153°09'0 0.5
2017-Oct-15 03:30S 27°04' E 153°09'0 0.5
2017-Oct-15 03:00S 27°04' E 153°09'0 0.1
2017-Oct-15 02:31S 27°04' E 153°09'0 0.1
2017-Oct-15 02:00S 27°04' E 153°09'0 0.0
2017-Oct-15 01:30S 27°04' E 153°09'0 0.3
2017-Oct-15 01:00S 27°04' E 153°09'0 0.1
2017-Oct-15 00:30S 27°04' E 153°09'0 0.2
2017-Oct-15 00:00S 27°04' E 153°09'0 0.2
2017-Oct-14 23:30S 27°04' E 153°09'1 1.3
2017-Oct-14 23:00S 27°04' E 153°09'1 1.6
2017-Oct-14 22:30S 27°04' E 153°09'1 1.5
2017-Oct-14 22:00S 27°04' E 153°09'0 0.0
2017-Oct-14 21:30S 27°04' E 153°09'1 1.4
2017-Oct-14 21:00S 27°04' E 153°09'1 1.4
2017-Oct-14 20:30S 27°04' E 153°09'0 0.0
2017-Oct-14 05:26S 27°04' E 153°09'3 7.4
2017-Oct-14 05:01S 27°07' E 153°08'3 0.1
2017-Oct-13 06:37S 27°04' E 153°09'0 3.7
2017-Oct-13 06:31S 27°04' E 153°09'0 0.8
2017-Oct-13 06:01S 27°04' E 153°09'1 2.3
2017-Oct-13 05:30S 27°05' E 153°09'2 3.4
2017-Oct-13 05:00S 27°04' E 153°08'1410.5
2017-Oct-13 03:39S 27°16' E 153°16'6 0.3
2017-Oct-12 05:03S 27°20' E 153°10'128.4
2017-Oct-12 05:00S 27°18' E 153°10'1530.0
2017-Oct-12 04:30S 27°04' E 153°12'  
2017-Oct-10 00:12S 27°05' E 153°13'736.0
2017-Oct-10 00:01S 27°09' E 153°06'15 0.4
2017-Oct-08 06:46S 27°24' E 153°09'1525.0
2017-Oct-08 06:10S 27°23' E 153°26'2 9.2
2017-Oct-08 05:57S 27°23' E 153°24'1328.3
2017-Oct-08 05:29S 27°24' E 153°09'  
Track history (hours):
 
Tides and Currents Weather Stations Pressure Air Temp Water Temp Dewpoint Dewpoint Depression Visibility Wind Speed Wind Dir Waves Ship Positions

24696

Last reported at 2017-Oct-16 02:37 UTC. Time now 2017-Oct-18 11:30 UTC.
Position S 27°24' E 153°09'.

Type: Pleasure craft. MMSI: 503052290.

Date/timePositionNaut miles runAvg speedWind from/ knotsBaromVisibWave heightAir tempDewpointWater temp
2017-Oct-16 02:37S 27°24' E 153°09'430.8
2017-Oct-16 02:30S 27°20' E 153°10'817.0
2017-Oct-16 02:01S 27°12' E 153°09'2 4.0
2017-Oct-16 01:31S 27°12' E 153°06'0 0.0
2017-Oct-15 23:02S 27°12' E 153°06'0 0.0
2017-Oct-15 23:00S 27°12' E 153°06'0 0.6
2017-Oct-15 22:31S 27°11' E 153°06'3 6.6
2017-Oct-15 22:00S 27°08' E 153°07'4 8.5
2017-Oct-15 21:31S 27°04' E 153°09'0 0.0
2017-Oct-15 06:58S 27°04' E 153°09'1 1.7
2017-Oct-15 06:31S 27°04' E 153°09'1 0.5
2017-Oct-15 04:52S 27°04' E 153°09'1 1.9
2017-Oct-15 04:30S 27°04' E 153°09'0 0.0
2017-Oct-15 04:00S 27°04' E 153°09'0 0.5
2017-Oct-15 03:30S 27°04' E 153°09'0 0.5
2017-Oct-15 03:00S 27°04' E 153°09'0 0.1
2017-Oct-15 02:31S 27°04' E 153°09'0 0.1
2017-Oct-15 02:00S 27°04' E 153°09'0 0.0
2017-Oct-15 01:30S 27°04' E 153°09'0 0.3
2017-Oct-15 01:00S 27°04' E 153°09'0 0.1
2017-Oct-15 00:30S 27°04' E 153°09'0 0.2
2017-Oct-15 00:00S 27°04' E 153°09'0 0.2
2017-Oct-14 23:30S 27°04' E 153°09'1 1.3
2017-Oct-14 23:00S 27°04' E 153°09'1 1.6
2017-Oct-14 22:30S 27°04' E 153°09'1 1.5
2017-Oct-14 22:00S 27°04' E 153°09'0 0.0
2017-Oct-14 21:30S 27°04' E 153°09'1 1.4
2017-Oct-14 21:00S 27°04' E 153°09'1 1.4
2017-Oct-14 20:30S 27°04' E 153°09'0 0.0
2017-Oct-14 05:26S 27°04' E 153°09'3 7.4
2017-Oct-14 05:01S 27°07' E 153°08'3 0.1
2017-Oct-13 06:37S 27°04' E 153°09'0 3.7
2017-Oct-13 06:31S 27°04' E 153°09'0 0.8
2017-Oct-13 06:01S 27°04' E 153°09'1 2.3
2017-Oct-13 05:30S 27°05' E 153°09'2 3.4
2017-Oct-13 05:00S 27°04' E 153°08'1410.5
2017-Oct-13 03:39S 27°16' E 153°16'6 0.3
2017-Oct-12 05:03S 27°20' E 153°10'128.4
2017-Oct-12 05:00S 27°18' E 153°10'1530.0
2017-Oct-12 04:30S 27°04' E 153°12'  
2017-Oct-10 00:12S 27°05' E 153°13'736.0
2017-Oct-10 00:01S 27°09' E 153°06'15 0.4
2017-Oct-08 06:46S 27°24' E 153°09'1525.0
2017-Oct-08 06:10S 27°23' E 153°26'2 9.2
2017-Oct-08 05:57S 27°23' E 153°24'1328.3
2017-Oct-08 05:29S 27°24' E 153°09'  

Dump ship's entire track history